createdAt,value
2017-08-29T00:00:36.915Z,1018.08
2017-08-29T00:01:46.013Z,1018.06
2017-08-29T00:02:55.196Z,1018.05
2017-08-29T00:04:04.041Z,1018.1
2017-08-29T00:05:12.887Z,1018.1
2017-08-29T00:06:21.733Z,1018.03
2017-08-29T00:07:30.916Z,1018.03
2017-08-29T00:08:39.761Z,1018.02
2017-08-29T00:09:48.605Z,1017.99
2017-08-29T00:10:57.451Z,1017.97
2017-08-29T00:12:06.294Z,1018.02
2017-08-29T00:13:15.188Z,1018.03
2017-08-29T00:14:24.033Z,1017.97
2017-08-29T00:15:32.878Z,1017.99
2017-08-29T00:16:41.727Z,1017.99
2017-08-29T00:17:50.577Z,1017.97
2017-08-29T00:18:59.752Z,1018.03
2017-08-29T00:20:08.597Z,1018.03
2017-08-29T00:21:17.441Z,1018.02
2017-08-29T00:22:26.286Z,1018.02
2017-08-29T00:23:35.134Z,1018.04
2017-08-29T00:24:44.080Z,1018.08
2017-08-29T00:25:52.926Z,1018.06
2017-08-29T00:27:01.773Z,1018.06
2017-08-29T00:28:10.619Z,1018.05
2017-08-29T00:29:19.464Z,1018.07
2017-08-29T00:30:28.458Z,1018.09
2017-08-29T00:31:37.304Z,1018.01
2017-08-29T00:32:46.149Z,1018.02
2017-08-29T00:33:54.992Z,1018.03
2017-08-29T00:35:03.837Z,1017.96
2017-08-29T00:36:12.689Z,1017.98
2017-08-29T00:37:21.868Z,1017.95
2017-08-29T00:38:30.713Z,1017.97
2017-08-29T00:39:39.560Z,1017.95
2017-08-29T00:40:48.401Z,1017.95
2017-08-29T00:41:57.296Z,1017.98
2017-08-29T00:43:06.142Z,1017.94
2017-08-29T00:44:14.990Z,1017.93
2017-08-29T00:45:24.172Z,1017.96
2017-08-29T00:46:33.011Z,1017.93
2017-08-29T00:47:41.856Z,1017.94
2017-08-29T00:48:50.703Z,1017.94
2017-08-29T00:49:59.546Z,1017.93
2017-08-29T00:51:08.392Z,1017.96
2017-08-29T00:52:17.236Z,1017.92
2017-08-29T00:53:26.230Z,1017.92
2017-08-29T00:54:35.076Z,1017.94
2017-08-29T00:55:43.921Z,1017.87
2017-08-29T00:56:52.770Z,1017.89
2017-08-29T00:58:01.951Z,1017.9
2017-08-29T00:59:11.466Z,1017.86
2017-08-29T01:00:20.309Z,1017.87
2017-08-29T01:01:29.154Z,1017.85
2017-08-29T01:02:37.999Z,1017.79
2017-08-29T01:03:46.845Z,1017.83
2017-08-29T01:04:55.841Z,1017.79
2017-08-29T01:06:04.686Z,1017.76
2017-08-29T01:07:13.531Z,1017.78
2017-08-29T01:08:22.377Z,1017.77
2017-08-29T01:09:31.223Z,1017.8
2017-08-29T01:10:40.219Z,1017.79
2017-08-29T01:11:49.064Z,1017.77
2017-08-29T01:12:57.910Z,1017.77
2017-08-29T01:14:06.762Z,1017.71
2017-08-29T01:15:15.607Z,1017.73
2017-08-29T01:16:24.598Z,1017.78
2017-08-29T01:17:33.444Z,1017.73
2017-08-29T01:18:42.288Z,1017.73
2017-08-29T01:19:51.133Z,1017.72
2017-08-29T01:20:59.976Z,1017.69
2017-08-29T01:22:09.072Z,1017.69
2017-08-29T01:23:17.918Z,1017.71
2017-08-29T01:24:26.761Z,1017.71
2017-08-29T01:25:35.608Z,1017.66
2017-08-29T01:26:44.456Z,1017.61
2017-08-29T01:27:53.400Z,1017.64
2017-08-29T01:29:02.250Z,1017.65
2017-08-29T01:30:11.428Z,1017.61
2017-08-29T01:31:20.272Z,1017.59
2017-08-29T01:32:29.117Z,1017.59
2017-08-29T01:33:38.015Z,1017.6
2017-08-29T01:34:46.856Z,1017.6
2017-08-29T01:35:55.700Z,1017.58
2017-08-29T01:37:04.544Z,1017.6
2017-08-29T01:38:13.387Z,1017.61
2017-08-29T01:39:22.236Z,1017.56
2017-08-29T01:40:31.082Z,1017.59
2017-08-29T01:41:39.926Z,1017.55
2017-08-29T01:42:48.772Z,1017.61
2017-08-29T01:43:57.616Z,1017.54
2017-08-29T01:45:06.660Z,1017.55
2017-08-29T01:46:15.507Z,1017.54
2017-08-29T01:47:24.349Z,1017.51
2017-08-29T01:48:33.194Z,1017.51
2017-08-29T01:49:42.039Z,1017.5
2017-08-29T01:50:51.265Z,1017.49
2017-08-29T01:52:00.109Z,1017.47
2017-08-29T01:53:08.955Z,1017.47
2017-08-29T01:54:17.798Z,1017.44
2017-08-29T01:55:26.642Z,1017.5
2017-08-29T01:56:35.540Z,1017.45
2017-08-29T01:57:44.383Z,1017.45
2017-08-29T01:58:53.229Z,1017.42
2017-08-29T02:00:02.075Z,1017.41
2017-08-29T02:01:10.922Z,1017.42
2017-08-29T02:02:19.967Z,1017.38
2017-08-29T02:03:29.145Z,1017.4
2017-08-29T02:04:37.994Z,1017.38
2017-08-29T02:05:47.167Z,1017.34
2017-08-29T02:06:56.009Z,1017.31
2017-08-29T02:08:04.905Z,1017.31
2017-08-29T02:09:13.748Z,1017.31
2017-08-29T02:10:22.596Z,1017.33
2017-08-29T02:11:31.440Z,1017.28
2017-08-29T02:12:40.285Z,1017.32
2017-08-29T02:13:49.131Z,1017.27
2017-08-29T02:14:57.975Z,1017.3
2017-08-29T02:16:06.821Z,1017.3
2017-08-29T02:17:15.663Z,1017.29
2017-08-29T02:18:24.839Z,1017.28
2017-08-29T02:19:33.836Z,1017.28
2017-08-29T02:20:42.679Z,1017.25
2017-08-29T02:21:51.523Z,1017.22
2017-08-29T02:23:00.372Z,1017.21
2017-08-29T02:24:09.217Z,1017.23
2017-08-29T02:25:18.162Z,1017.26
2017-08-29T02:26:27.008Z,1017.27
2017-08-29T02:27:35.853Z,1017.23
2017-08-29T02:28:44.693Z,1017.23
2017-08-29T02:29:53.538Z,1017.23
2017-08-29T02:31:02.533Z,1017.22
2017-08-29T02:32:11.381Z,1017.22
2017-08-29T02:33:20.232Z,1017.17
2017-08-29T02:34:29.076Z,1017.15
2017-08-29T02:35:37.925Z,1017.13
2017-08-29T02:36:47.156Z,1017.13
2017-08-29T02:37:56.002Z,1017.13
2017-08-29T02:39:04.848Z,1017.12
2017-08-29T02:40:13.697Z,1017.13
2017-08-29T02:41:22.869Z,1017.13
2017-08-29T02:42:32.115Z,1017.13
2017-08-29T02:43:40.961Z,1017.1
2017-08-29T02:44:49.806Z,1017.12
2017-08-29T02:45:58.984Z,1017.09
2017-08-29T02:47:07.830Z,1017.06
2017-08-29T02:48:16.830Z,1017.04
2017-08-29T02:49:25.725Z,1017.04
2017-08-29T02:50:34.571Z,1017.03
2017-08-29T02:51:43.419Z,1017.03
2017-08-29T02:52:52.265Z,1017.06
2017-08-29T02:54:01.109Z,1017.02
2017-08-29T02:55:09.958Z,1017
2017-08-29T02:56:18.803Z,1017.01
2017-08-29T02:57:27.645Z,1017.04
2017-08-29T02:58:36.489Z,1017.03
2017-08-29T02:59:45.485Z,1017.02
2017-08-29T03:00:54.352Z,1016.99
2017-08-29T03:02:03.175Z,1017
2017-08-29T03:03:12.021Z,1016.99
2017-08-29T03:04:20.865Z,1016.97
2017-08-29T03:05:30.011Z,1016.92
2017-08-29T03:06:38.856Z,1016.94
2017-08-29T03:07:47.701Z,1016.89
2017-08-29T03:08:56.546Z,1016.85
2017-08-29T03:10:05.393Z,1016.85
2017-08-29T03:11:14.389Z,1016.83
2017-08-29T03:12:23.233Z,1016.83
2017-08-29T03:13:32.079Z,1016.82
2017-08-29T03:14:41.258Z,1016.81
2017-08-29T03:15:50.102Z,1016.78
2017-08-29T03:16:59.094Z,1016.76
2017-08-29T03:18:07.943Z,1016.81
2017-08-29T03:19:17.118Z,1016.74
2017-08-29T03:20:25.960Z,1016.76
2017-08-29T03:21:34.806Z,1016.71
2017-08-29T03:22:43.651Z,1016.72
2017-08-29T03:23:52.493Z,1016.68
2017-08-29T03:25:01.338Z,1016.72
2017-08-29T03:26:10.184Z,1016.67
2017-08-29T03:27:19.026Z,1016.66
2017-08-29T03:28:27.921Z,1016.66
2017-08-29T03:29:36.770Z,1016.65
2017-08-29T03:30:45.614Z,1016.63
2017-08-29T03:31:54.460Z,1016.64
2017-08-29T03:33:03.302Z,1016.64
2017-08-29T03:34:12.248Z,1016.65
2017-08-29T03:35:21.096Z,1016.65
2017-08-29T03:36:29.942Z,1016.69
2017-08-29T03:37:38.783Z,1016.68
2017-08-29T03:38:47.630Z,1016.68
2017-08-29T03:39:56.673Z,1016.67
2017-08-29T03:41:05.544Z,1016.67
2017-08-29T03:42:14.363Z,1016.6
2017-08-29T03:43:23.207Z,1016.65
2017-08-29T03:44:32.054Z,1016.62
2017-08-29T03:45:41.001Z,1016.63
2017-08-29T03:46:49.844Z,1016.6
2017-08-29T03:47:58.687Z,1016.62
2017-08-29T03:49:07.536Z,1016.58
2017-08-29T03:50:17.047Z,1016.61
2017-08-29T03:51:26.043Z,1016.65
2017-08-29T03:52:34.888Z,1016.61
2017-08-29T03:53:43.735Z,1016.56
2017-08-29T03:54:52.577Z,1016.53
2017-08-29T03:56:01.421Z,1016.59
2017-08-29T03:57:10.420Z,1016.61
2017-08-29T03:58:19.261Z,1016.58
2017-08-29T03:59:28.155Z,1016.56
2017-08-29T04:00:36.998Z,1016.61
2017-08-29T04:01:45.841Z,1016.57
2017-08-29T04:02:54.687Z,1016.58
2017-08-29T04:04:03.530Z,1016.57
2017-08-29T04:05:12.380Z,1016.57
2017-08-29T04:06:21.224Z,1016.56
2017-08-29T04:07:30.069Z,1016.57
2017-08-29T04:08:39.013Z,1016.54
2017-08-29T04:09:47.856Z,1016.56
2017-08-29T04:10:56.702Z,1016.51
2017-08-29T04:12:05.546Z,1016.5
2017-08-29T04:13:14.393Z,1016.5
2017-08-29T04:14:23.539Z,1016.48
2017-08-29T04:15:32.387Z,1016.45
2017-08-29T04:16:41.231Z,1016.43
2017-08-29T04:17:50.074Z,1016.46
2017-08-29T04:18:59.250Z,1016.39
2017-08-29T04:20:08.244Z,1016.46
2017-08-29T04:21:17.090Z,1016.39
2017-08-29T04:22:25.935Z,1016.4
2017-08-29T04:23:34.778Z,1016.42
2017-08-29T04:24:43.620Z,1016.4
2017-08-29T04:25:52.464Z,1016.41
2017-08-29T04:27:01.310Z,1016.39
2017-08-29T04:28:10.156Z,1016.41
2017-08-29T04:29:19.003Z,1016.39
2017-08-29T04:30:27.848Z,1016.39
2017-08-29T04:31:36.842Z,1016.42
2017-08-29T04:32:45.687Z,1016.37
2017-08-29T04:33:54.532Z,1016.41
2017-08-29T04:35:03.377Z,1016.37
2017-08-29T04:36:12.220Z,1016.39
2017-08-29T04:37:21.214Z,1016.39
2017-08-29T04:38:30.061Z,1016.39
2017-08-29T04:39:38.903Z,1016.36
2017-08-29T04:40:47.749Z,1016.38
2017-08-29T04:41:56.595Z,1016.4
2017-08-29T04:43:05.491Z,1016.38
2017-08-29T04:44:14.334Z,1016.41
2017-08-29T04:45:23.181Z,1016.4
2017-08-29T04:46:32.024Z,1016.38
2017-08-29T04:47:40.897Z,1016.39
2017-08-29T04:48:49.711Z,1016.37
2017-08-29T04:49:58.888Z,1016.39
2017-08-29T04:51:07.731Z,1016.36
2017-08-29T04:52:16.573Z,1016.4
2017-08-29T04:53:25.416Z,1016.4
2017-08-29T04:54:34.412Z,1016.37
2017-08-29T04:55:43.258Z,1016.36
2017-08-29T04:56:52.104Z,1016.37
2017-08-29T04:58:01.286Z,1016.33
2017-08-29T04:59:10.459Z,1016.32
2017-08-29T05:00:19.456Z,1016.32
2017-08-29T05:01:28.304Z,1016.27
2017-08-29T05:02:37.150Z,1016.29
2017-08-29T05:03:45.997Z,1016.28
2017-08-29T05:04:54.844Z,1016.28
2017-08-29T05:06:04.184Z,1016.26
2017-08-29T05:07:13.030Z,1016.25
2017-08-29T05:08:21.874Z,1016.23
2017-08-29T05:09:30.721Z,1016.24
2017-08-29T05:10:39.579Z,1016.25
2017-08-29T05:11:48.576Z,1016.19
2017-08-29T05:12:57.420Z,1016.25
2017-08-29T05:14:06.267Z,1016.22
2017-08-29T05:15:15.115Z,1016.22
2017-08-29T05:16:23.961Z,1016.22
2017-08-29T05:17:32.859Z,1016.23
2017-08-29T05:18:41.706Z,1016.2
2017-08-29T05:19:50.547Z,1016.22
2017-08-29T05:20:59.391Z,1016.26
2017-08-29T05:22:08.637Z,1016.24
2017-08-29T05:23:17.481Z,1016.23
2017-08-29T05:24:26.326Z,1016.23
2017-08-29T05:25:35.172Z,1016.22
2017-08-29T05:26:44.016Z,1016.19
2017-08-29T05:27:52.863Z,1016.2
2017-08-29T05:29:01.712Z,1016.2
2017-08-29T05:30:10.769Z,1016.18
2017-08-29T05:31:19.618Z,1016.2
2017-08-29T05:32:28.458Z,1016.17
2017-08-29T05:33:37.303Z,1016.19
2017-08-29T05:34:46.152Z,1016.15
2017-08-29T05:35:55.003Z,1016.14
2017-08-29T05:37:03.850Z,1016.14
2017-08-29T05:38:12.697Z,1016.14
2017-08-29T05:39:21.547Z,1016.1
2017-08-29T05:40:30.391Z,1016.13
2017-08-29T05:41:39.236Z,1016.15
2017-08-29T05:42:48.083Z,1016.14
2017-08-29T05:43:56.932Z,1016.14
2017-08-29T05:45:06.114Z,1016.1
2017-08-29T05:46:14.964Z,1016.11
2017-08-29T05:47:23.815Z,1016.08
2017-08-29T05:48:32.660Z,1016.04
2017-08-29T05:49:41.502Z,1016.05
2017-08-29T05:50:50.347Z,1016.03
2017-08-29T05:51:59.193Z,1016.02
2017-08-29T05:53:08.374Z,1016.06
2017-08-29T05:54:17.520Z,1016.01
2017-08-29T05:55:26.367Z,1016.04
2017-08-29T05:56:35.210Z,1016.04
2017-08-29T05:57:44.055Z,1016.02
2017-08-29T05:58:52.901Z,1016.01
2017-08-29T06:00:01.897Z,1016.06
2017-08-29T06:01:10.743Z,1016.03
2017-08-29T06:02:19.589Z,1016.02
2017-08-29T06:03:28.435Z,1016.04
2017-08-29T06:04:37.281Z,1016.04
2017-08-29T06:05:46.279Z,1015.99
2017-08-29T06:06:55.124Z,1016
2017-08-29T06:08:03.970Z,1016.05
2017-08-29T06:09:12.817Z,1016.04
2017-08-29T06:10:21.661Z,1016.05
2017-08-29T06:11:30.889Z,1016.02
2017-08-29T06:12:39.736Z,1016.01
2017-08-29T06:13:48.584Z,1016.03
2017-08-29T06:14:57.428Z,1016.04
2017-08-29T06:16:06.277Z,1016.03
2017-08-29T06:17:15.279Z,1016.04
2017-08-29T06:18:24.126Z,1015.96
2017-08-29T06:19:32.973Z,1015.99
2017-08-29T06:20:41.817Z,1015.96
2017-08-29T06:21:50.666Z,1015.93
2017-08-29T06:22:59.664Z,1015.94
2017-08-29T06:24:08.512Z,1015.97
2017-08-29T06:25:17.358Z,1015.96
2017-08-29T06:26:26.206Z,1015.96
2017-08-29T06:27:35.052Z,1015.96
2017-08-29T06:28:43.999Z,1015.98
2017-08-29T06:29:52.846Z,1015.98
2017-08-29T06:31:01.695Z,1016.01
2017-08-29T06:32:10.545Z,1016
2017-08-29T06:33:19.390Z,1016
2017-08-29T06:34:28.438Z,1015.98
2017-08-29T06:35:37.283Z,1015.98
2017-08-29T06:36:46.130Z,1016
2017-08-29T06:37:54.978Z,1015.94
2017-08-29T06:39:03.827Z,1015.97
2017-08-29T06:40:13.159Z,1015.99
2017-08-29T06:41:22.005Z,1015.97
2017-08-29T06:42:30.855Z,1016
2017-08-29T06:43:39.704Z,1015.99
2017-08-29T06:44:48.557Z,1015.98
2017-08-29T06:45:57.407Z,1015.99
2017-08-29T06:47:06.589Z,1015.97
2017-08-29T06:48:15.438Z,1015.99
2017-08-29T06:49:24.286Z,1016.01
2017-08-29T06:50:33.144Z,1016.03
2017-08-29T06:51:42.042Z,1016.06
2017-08-29T06:52:50.890Z,1015.97
2017-08-29T06:53:59.740Z,1015.99
2017-08-29T06:55:08.586Z,1015.99
2017-08-29T06:56:17.437Z,1015.96
2017-08-29T06:57:26.672Z,1015.89
2017-08-29T06:58:35.864Z,1015.93
2017-08-29T06:59:44.711Z,1015.88
2017-08-29T07:00:53.559Z,1015.87
2017-08-29T07:02:02.411Z,1015.84
2017-08-29T07:03:11.308Z,1015.86
2017-08-29T07:04:20.158Z,1015.84
2017-08-29T07:05:29.014Z,1015.8
2017-08-29T07:06:37.862Z,1015.82
2017-08-29T07:07:46.713Z,1015.86
2017-08-29T07:08:55.561Z,1015.88
2017-08-29T07:10:04.410Z,1015.82
2017-08-29T07:11:13.264Z,1015.82
2017-08-29T07:12:22.116Z,1015.8
2017-08-29T07:13:30.964Z,1015.76
2017-08-29T07:14:39.925Z,1015.79
2017-08-29T07:15:49.128Z,1015.77
2017-08-29T07:16:57.974Z,1015.78
2017-08-29T07:18:06.823Z,1015.74
2017-08-29T07:19:15.673Z,1015.8
2017-08-29T07:20:24.775Z,1015.76
2017-08-29T07:21:33.648Z,1015.74
2017-08-29T07:22:42.825Z,1015.74
2017-08-29T07:23:51.673Z,1015.74
2017-08-29T07:25:00.524Z,1015.74
2017-08-29T07:26:09.536Z,1015.76
2017-08-29T07:27:18.386Z,1015.77
2017-08-29T07:28:27.235Z,1015.76
2017-08-29T07:29:36.417Z,1015.81
2017-08-29T07:30:45.265Z,1015.81
2017-08-29T07:31:54.265Z,1015.83
2017-08-29T07:33:03.454Z,1015.81
2017-08-29T07:34:12.304Z,1015.8
2017-08-29T07:35:21.153Z,1015.76
2017-08-29T07:36:30.004Z,1015.76
2017-08-29T07:37:38.962Z,1015.77
2017-08-29T07:38:47.809Z,1015.73
2017-08-29T07:39:56.660Z,1015.72
2017-08-29T07:41:05.511Z,1015.76
2017-08-29T07:42:14.377Z,1015.77
2017-08-29T07:43:23.403Z,1015.77
2017-08-29T07:44:32.252Z,1015.8
2017-08-29T07:45:41.100Z,1015.82
2017-08-29T07:46:49.959Z,1015.84
2017-08-29T07:47:58.810Z,1015.88
2017-08-29T07:49:07.761Z,1015.88
2017-08-29T07:50:16.624Z,1015.88
2017-08-29T07:51:25.487Z,1015.88
2017-08-29T07:52:34.338Z,1015.88
2017-08-29T07:53:43.190Z,1015.88
2017-08-29T07:54:52.294Z,1015.87
2017-08-29T07:56:01.162Z,1015.82
2017-08-29T07:57:10.010Z,1015.81
2017-08-29T07:58:18.860Z,1015.79
2017-08-29T07:59:27.710Z,1015.77
2017-08-29T08:00:36.727Z,1015.78
2017-08-29T08:01:45.582Z,1015.76
2017-08-29T08:02:54.446Z,1015.75
2017-08-29T08:04:03.300Z,1015.75
2017-08-29T08:05:12.151Z,1015.74
2017-08-29T08:06:21.158Z,1015.7
2017-08-29T08:07:30.341Z,1015.73
2017-08-29T08:08:39.190Z,1015.73
2017-08-29T08:09:48.038Z,1015.67
2017-08-29T08:10:56.889Z,1015.68
2017-08-29T08:12:05.910Z,1015.69
2017-08-29T08:13:14.760Z,1015.68
2017-08-29T08:14:23.613Z,1015.68
2017-08-29T08:15:32.462Z,1015.66
2017-08-29T08:16:41.312Z,1015.68
2017-08-29T08:17:50.416Z,1015.7
2017-08-29T08:18:59.265Z,1015.69
2017-08-29T08:20:08.120Z,1015.66
2017-08-29T08:21:16.976Z,1015.65
2017-08-29T08:22:25.832Z,1015.69
2017-08-29T08:23:34.984Z,1015.68
2017-08-29T08:24:43.834Z,1015.7
2017-08-29T08:25:52.686Z,1015.69
2017-08-29T08:27:01.541Z,1015.66
2017-08-29T08:28:10.392Z,1015.68
2017-08-29T08:29:19.397Z,1015.72
2017-08-29T08:30:28.260Z,1015.73
2017-08-29T08:31:37.113Z,1015.74
2017-08-29T08:32:45.966Z,1015.75
2017-08-29T08:33:54.821Z,1015.71
2017-08-29T08:35:03.975Z,1015.75
2017-08-29T08:36:12.831Z,1015.76
2017-08-29T08:37:22.016Z,1015.74
2017-08-29T08:38:30.868Z,1015.71
2017-08-29T08:39:39.721Z,1015.73
2017-08-29T08:40:48.947Z,1015.71
2017-08-29T08:41:57.823Z,1015.74
2017-08-29T08:43:06.692Z,1015.74
2017-08-29T08:44:15.547Z,1015.74
2017-08-29T08:45:24.401Z,1015.76
2017-08-29T08:46:33.582Z,1015.76
2017-08-29T08:47:42.440Z,1015.79
2017-08-29T08:48:51.389Z,1015.78
2017-08-29T08:50:00.243Z,1015.82
2017-08-29T08:51:09.444Z,1015.76
2017-08-29T08:52:18.448Z,1015.76
2017-08-29T08:53:27.302Z,1015.74
2017-08-29T08:54:36.165Z,1015.71
2017-08-29T08:55:45.015Z,1015.71
2017-08-29T08:56:53.868Z,1015.71
2017-08-29T08:58:02.779Z,1015.7
2017-08-29T08:59:11.653Z,1015.74
2017-08-29T09:00:20.569Z,1015.68
2017-08-29T09:01:29.420Z,1015.72
2017-08-29T09:02:38.319Z,1015.71
2017-08-29T09:03:47.498Z,1015.74
2017-08-29T09:04:56.492Z,1015.71
2017-08-29T09:06:05.388Z,1015.76
2017-08-29T09:07:14.318Z,1015.74
2017-08-29T09:08:23.171Z,1015.71
2017-08-29T09:09:32.123Z,1015.72
2017-08-29T09:10:40.985Z,1015.73
2017-08-29T09:11:49.837Z,1015.67
2017-08-29T09:12:58.687Z,1015.68
2017-08-29T09:14:07.538Z,1015.67
2017-08-29T09:15:16.690Z,1015.67
2017-08-29T09:16:25.604Z,1015.7
2017-08-29T09:17:34.475Z,1015.69
2017-08-29T09:18:43.341Z,1015.67
2017-08-29T09:19:52.192Z,1015.68
2017-08-29T09:21:01.143Z,1015.61
2017-08-29T09:22:10.028Z,1015.62
2017-08-29T09:23:18.917Z,1015.6
2017-08-29T09:24:27.768Z,1015.64
2017-08-29T09:25:36.624Z,1015.58
2017-08-29T09:26:45.479Z,1015.58
2017-08-29T09:27:54.365Z,1015.61
2017-08-29T09:29:03.239Z,1015.63
2017-08-29T09:30:12.094Z,1015.61
2017-08-29T09:31:20.990Z,1015.65
2017-08-29T09:32:30.015Z,1015.58
2017-08-29T09:33:38.869Z,1015.48
2017-08-29T09:34:47.792Z,1015.49
2017-08-29T09:35:56.656Z,1015.47
2017-08-29T09:37:05.515Z,1015.43
2017-08-29T09:38:14.561Z,1015.41
2017-08-29T09:39:23.438Z,1015.43
2017-08-29T09:40:32.292Z,1015.48
2017-08-29T09:41:41.146Z,1015.39
2017-08-29T09:42:50.005Z,1015.43
2017-08-29T09:43:59.162Z,1015.4
2017-08-29T09:45:08.013Z,1015.37
2017-08-29T09:46:16.926Z,1015.42
2017-08-29T09:47:26.117Z,1015.38
2017-08-29T09:48:34.970Z,1015.31
2017-08-29T09:49:43.824Z,1015.3
2017-08-29T09:50:52.696Z,1015.3
2017-08-29T09:52:01.562Z,1015.34
2017-08-29T09:53:10.418Z,1015.31
2017-08-29T09:54:19.293Z,1015.32
2017-08-29T09:55:28.525Z,1015.29
2017-08-29T09:56:37.377Z,1015.3
2017-08-29T09:57:46.255Z,1015.3
2017-08-29T09:58:55.131Z,1015.24
2017-08-29T10:00:03.983Z,1015.27
2017-08-29T10:01:13.042Z,1015.24
2017-08-29T10:02:21.928Z,1015.25
2017-08-29T10:03:31.113Z,1015.26
2017-08-29T10:04:39.971Z,1015.26
2017-08-29T10:05:48.828Z,1015.22
2017-08-29T10:06:57.730Z,1015.18
2017-08-29T10:08:06.586Z,1015.2
2017-08-29T10:09:15.440Z,1015.19
2017-08-29T10:10:24.298Z,1015.15
2017-08-29T10:11:33.153Z,1015.15
2017-08-29T10:12:42.004Z,1015.18
2017-08-29T10:13:50.855Z,1015.15
2017-08-29T10:14:59.708Z,1015.12
2017-08-29T10:16:08.565Z,1015.13
2017-08-29T10:17:17.453Z,1015.1
2017-08-29T10:18:26.461Z,1015.09
2017-08-29T10:19:35.679Z,1015.06
2017-08-29T10:20:44.531Z,1015.09
2017-08-29T10:21:53.385Z,1015.06
2017-08-29T10:23:02.243Z,1015.06
2017-08-29T10:24:11.351Z,1015.07
2017-08-29T10:25:20.208Z,1015.04
2017-08-29T10:26:29.065Z,1015.02
2017-08-29T10:27:37.919Z,1015.01
2017-08-29T10:28:46.777Z,1014.98
2017-08-29T10:29:55.682Z,1014.98
2017-08-29T10:31:04.535Z,1014.95
2017-08-29T10:32:13.393Z,1014.91
2017-08-29T10:33:22.246Z,1014.91
2017-08-29T10:34:31.110Z,1014.91
2017-08-29T10:35:40.114Z,1014.93
2017-08-29T10:36:49.007Z,1014.91
2017-08-29T10:37:57.863Z,1014.87
2017-08-29T10:39:06.717Z,1014.86
2017-08-29T10:40:15.570Z,1014.88
2017-08-29T10:41:24.524Z,1014.86
2017-08-29T10:42:33.389Z,1014.88
2017-08-29T10:43:42.248Z,1014.91
2017-08-29T10:44:51.103Z,1014.88
2017-08-29T10:45:59.958Z,1014.83
2017-08-29T10:47:09.065Z,1014.84
2017-08-29T10:48:17.948Z,1014.83
2017-08-29T10:49:26.807Z,1014.8
2017-08-29T10:50:35.664Z,1014.78
2017-08-29T10:51:44.560Z,1014.76
2017-08-29T10:52:53.975Z,1014.76
2017-08-29T10:54:03.133Z,1014.73
2017-08-29T10:55:12.035Z,1014.72
2017-08-29T10:56:20.935Z,1014.7
2017-08-29T10:57:30.004Z,1014.73
2017-08-29T10:58:40.268Z,1014.7
2017-08-29T10:59:49.329Z,1014.74
2017-08-29T11:00:58.415Z,1014.71
2017-08-29T11:02:07.762Z,1014.71
2017-08-29T11:03:17.555Z,1014.63
2017-08-29T11:04:26.718Z,1014.66
2017-08-29T11:05:35.625Z,1014.58
2017-08-29T11:06:44.481Z,1014.59
2017-08-29T11:07:53.417Z,1014.59
2017-08-29T11:09:02.647Z,1014.61
2017-08-29T11:10:11.837Z,1014.61
2017-08-29T11:11:21.101Z,1014.59
2017-08-29T11:12:30.025Z,1014.6
2017-08-29T11:13:39.433Z,1014.63
2017-08-29T11:14:48.728Z,1014.58
2017-08-29T11:15:57.849Z,1014.55
2017-08-29T11:17:07.086Z,1014.57
2017-08-29T11:18:16.152Z,1014.54
2017-08-29T11:19:25.405Z,1014.52
2017-08-29T11:20:34.521Z,1014.5
2017-08-29T11:21:44.253Z,1014.43
2017-08-29T11:22:53.500Z,1014.46
2017-08-29T11:24:02.883Z,1014.45
2017-08-29T11:25:12.566Z,1014.46
2017-08-29T11:26:21.645Z,1014.42
2017-08-29T11:27:30.803Z,1014.42
2017-08-29T11:28:40.030Z,1014.43
2017-08-29T11:29:49.202Z,1014.38
2017-08-29T11:30:58.698Z,1014.41
2017-08-29T11:32:07.828Z,1014.35
2017-08-29T11:33:17.057Z,1014.36
2017-08-29T11:34:26.192Z,1014.32
2017-08-29T11:35:35.670Z,1014.33
2017-08-29T11:36:45.069Z,1014.36
2017-08-29T11:37:54.163Z,1014.38
2017-08-29T11:39:03.875Z,1014.31
2017-08-29T11:40:12.731Z,1014.3
2017-08-29T11:41:21.587Z,1014.27
2017-08-29T11:42:30.445Z,1014.33
2017-08-29T11:43:39.299Z,1014.33
2017-08-29T11:44:48.153Z,1014.3
2017-08-29T11:45:57.006Z,1014.3
2017-08-29T11:47:05.862Z,1014.28
2017-08-29T11:48:14.721Z,1014.27
2017-08-29T11:49:23.580Z,1014.24
2017-08-29T11:50:32.736Z,1014.23
2017-08-29T11:51:41.593Z,1014.28
2017-08-29T11:52:50.453Z,1014.24
2017-08-29T11:53:59.311Z,1014.17
2017-08-29T11:55:08.166Z,1014.22
2017-08-29T11:56:17.120Z,1014.14
2017-08-29T11:57:25.977Z,1014.19
2017-08-29T11:58:34.835Z,1014.16
2017-08-29T11:59:43.689Z,1014.13
2017-08-29T12:00:52.550Z,1014.15
2017-08-29T12:02:01.456Z,1014.14
2017-08-29T12:03:10.336Z,1014.16
2017-08-29T12:04:19.306Z,1014.19
2017-08-29T12:05:28.528Z,1014.19
2017-08-29T12:06:37.397Z,1014.16
2017-08-29T12:07:46.363Z,1014.18
2017-08-29T12:08:55.221Z,1014.13
2017-08-29T12:10:04.153Z,1014.08
2017-08-29T12:11:13.013Z,1014.09
2017-08-29T12:12:21.874Z,1014.12
2017-08-29T12:13:31.053Z,1014.11
2017-08-29T12:14:39.930Z,1014.11
2017-08-29T12:15:48.793Z,1014.09
2017-08-29T12:16:57.652Z,1014.13
2017-08-29T12:18:06.510Z,1014.05
2017-08-29T12:19:15.671Z,1014.08
2017-08-29T12:20:24.532Z,1014.07
2017-08-29T12:21:33.396Z,1014.09
2017-08-29T12:22:42.261Z,1014.09
2017-08-29T12:23:51.122Z,1014.11
2017-08-29T12:25:00.283Z,1014.11
2017-08-29T12:26:09.153Z,1014.13
2017-08-29T12:27:18.014Z,1014.12
2017-08-29T12:28:26.874Z,1014.13
2017-08-29T12:29:35.736Z,1014.06
2017-08-29T12:30:44.600Z,1014.06
2017-08-29T12:31:53.483Z,1014.14
2017-08-29T12:33:02.357Z,1014.08
2017-08-29T12:34:11.219Z,1014.12
2017-08-29T12:35:20.078Z,1014.09
2017-08-29T12:36:30.215Z,1014.07
2017-08-29T12:37:39.879Z,1014.12
2017-08-29T12:38:48.741Z,1014.06
2017-08-29T12:39:57.601Z,1014.05
2017-08-29T12:41:06.468Z,1014.02
2017-08-29T12:42:15.485Z,1014.06
2017-08-29T12:43:24.346Z,1014.07
2017-08-29T12:44:33.211Z,1014.06
2017-08-29T12:45:42.074Z,1014.07
2017-08-29T12:46:50.934Z,1014.04
2017-08-29T12:47:59.954Z,1014.01
2017-08-29T12:49:08.825Z,1014
2017-08-29T12:50:17.768Z,1014
2017-08-29T12:51:26.629Z,1013.97
2017-08-29T12:52:35.576Z,1013.94
2017-08-29T12:55:23.437Z,1013.9
2017-08-29T12:56:32.546Z,1013.9
2017-08-29T12:57:41.636Z,1013.88
2017-08-29T12:58:50.733Z,1013.86
2017-08-29T12:59:59.596Z,1013.87
2017-08-29T13:01:08.456Z,1013.87
2017-08-29T13:02:17.352Z,1013.87
2017-08-29T13:03:26.249Z,1013.83
2017-08-29T13:04:35.314Z,1013.8
2017-08-29T13:05:44.174Z,1013.82
2017-08-29T13:06:53.036Z,1013.8
2017-08-29T13:08:01.922Z,1013.8
2017-08-29T13:09:10.781Z,1013.79
2017-08-29T13:10:19.693Z,1013.81
2017-08-29T13:11:28.554Z,1013.8
2017-08-29T13:12:37.449Z,1013.75
2017-08-29T13:13:46.335Z,1013.72
2017-08-29T13:14:55.196Z,1013.68
2017-08-29T13:16:04.209Z,1013.71
2017-08-29T13:17:13.071Z,1013.68
2017-08-29T13:18:22.095Z,1013.74
2017-08-29T13:19:31.004Z,1013.7
2017-08-29T13:20:40.202Z,1013.69
2017-08-29T13:21:49.498Z,1013.68
2017-08-29T13:22:58.364Z,1013.69
2017-08-29T13:24:07.234Z,1013.67
2017-08-29T13:25:16.100Z,1013.61
2017-08-29T13:26:24.961Z,1013.59
2017-08-29T13:27:34.072Z,1013.61
2017-08-29T13:28:42.930Z,1013.6
2017-08-29T13:29:51.789Z,1013.58
2017-08-29T13:31:00.649Z,1013.59
2017-08-29T13:32:09.510Z,1013.58
2017-08-29T13:33:18.473Z,1013.54
2017-08-29T13:34:27.341Z,1013.54
2017-08-29T13:35:36.203Z,1013.5
2017-08-29T13:36:45.098Z,1013.48
2017-08-29T13:37:53.957Z,1013.44
2017-08-29T13:39:02.873Z,1013.42
2017-08-29T13:40:11.743Z,1013.43
2017-08-29T13:41:20.603Z,1013.51
2017-08-29T13:42:29.464Z,1013.56
2017-08-29T13:43:38.329Z,1013.56
2017-08-29T13:44:47.434Z,1013.54
2017-08-29T13:45:56.294Z,1013.57
2017-08-29T13:47:05.154Z,1013.58
2017-08-29T13:48:14.015Z,1013.59
2017-08-29T13:49:22.879Z,1013.52
2017-08-29T13:50:31.794Z,1013.46
2017-08-29T13:51:40.985Z,1013.54
2017-08-29T13:52:49.850Z,1013.6
2017-08-29T13:53:58.714Z,1013.4
2017-08-29T13:55:07.910Z,1013.48
2017-08-29T13:56:17.073Z,1013.53
2017-08-29T13:57:25.938Z,1013.51
2017-08-29T13:58:35.137Z,1013.55